Time;durP1;ratioP1;P1;durP2;ratioP2;P2;SDS_P1;SDS_P2;PMS_P1;PMS_P2;Temp;Humidity;BMP_temperature;BMP_pressure;BME280_temperature;BME280_humidity;BME280_pressure;Samples;Min_cycle;Max_cycle;Signal;HPM_P1;HPM_P2
2021/05/25 00:01:40;;;;;;;;;;;22.40;44.20;;;;;;1577875;73;1183;-56
2021/05/25 00:03:42;;;;;;;;;;;22.40;44.30;;;;;;1589766;73;774;-57
2021/05/25 00:05:44;;;;;;;;;;;22.40;44.20;;;;;;1588377;73;784;-54
2021/05/25 00:07:45;;;;;;;;;;;22.40;44.30;;;;;;1581213;74;755;-55
2021/05/25 00:09:47;;;;;;;;;;;22.40;44.20;;;;;;1583535;73;870;-54
2021/05/25 00:11:49;;;;;;;;;;;22.40;44.20;;;;;;1586061;73;1124;-57
2021/05/25 00:13:53;;;;;;;;;;;22.40;44.30;;;;;;1586824;73;785;-56
2021/05/25 00:15:54;;;;;;;;;;;22.40;44.30;;;;;;1586777;73;723;-54
2021/05/25 00:17:56;;;;;;;;;;;22.40;44.20;;;;;;1578681;74;1936;-57
2021/05/25 00:19:58;;;;;;;;;;;22.40;44.20;;;;;;1578073;73;1236;-54
2021/05/25 00:22:00;;;;;;;;;;;22.40;44.20;;;;;;1588990;73;866;-55
2021/05/25 00:24:02;;;;;;;;;;;22.40;44.10;;;;;;1590586;73;744;-54
2021/05/25 00:26:04;;;;;;;;;;;22.40;44.00;;;;;;1577059;73;775;-56
2021/05/25 00:28:06;;;;;;;;;;;22.40;44.10;;;;;;1587821;74;777;-56
2021/05/25 00:30:08;;;;;;;;;;;22.40;44.10;;;;;;1578107;74;1165;-57
2021/05/25 00:32:10;;;;;;;;;;;22.40;44.10;;;;;;1575950;73;814;-56
2021/05/25 00:34:12;;;;;;;;;;;22.40;44.20;;;;;;1572289;73;887;-56
2021/05/25 00:36:14;;;;;;;;;;;22.40;43.90;;;;;;1572730;73;724;-56
2021/05/25 00:38:15;;;;;;;;;;;22.40;44.10;;;;;;1579790;73;1967;-56
2021/05/25 00:40:17;;;;;;;;;;;22.40;44.00;;;;;;1584162;74;1047;-55
2021/05/25 00:42:19;;;;;;;;;;;22.50;44.30;;;;;;1576450;73;874;-54
2021/05/25 00:44:21;;;;;;;;;;;22.40;44.20;;;;;;1579432;74;773;-56
2021/05/25 00:46:23;;;;;;;;;;;22.40;44.40;;;;;;1587324;74;725;-56
2021/05/25 00:48:25;;;;;;;;;;;22.40;44.40;;;;;;1580356;73;729;-52
2021/05/25 00:50:28;;;;;;;;;;;22.40;44.20;;;;;;1576491;73;1117;-57
2021/05/25 00:52:30;;;;;;;;;;;22.40;44.30;;;;;;1580561;73;766;-56
2021/05/25 00:54:32;;;;;;;;;;;22.40;44.20;;;;;;1583493;73;835;-54
2021/05/25 00:56:34;;;;;;;;;;;22.40;44.20;;;;;;1575526;74;799;-56
2021/05/25 00:58:36;;;;;;;;;;;22.40;44.20;;;;;;1576013;74;1948;-56
2021/05/25 01:00:38;;;;;;;;;;;22.40;44.20;;;;;;1579609;73;1143;-55
2021/05/25 01:02:40;;;;;;;;;;;22.40;44.20;;;;;;1572648;73;748;-53
2021/05/25 01:04:42;;;;;;;;;;;22.40;44.00;;;;;;1578665;73;732;-53
2021/05/25 01:06:44;;;;;;;;;;;22.40;44.10;;;;;;1579921;73;592;-56
2021/05/25 01:08:46;;;;;;;;;;;22.40;44.20;;;;;;1576517;73;749;-56
2021/05/25 01:11:11;;;;;;;;;;;22.40;44.20;;;;;;1577773;73;1147;-56
2021/05/25 01:12:58;;;;;;;;;;;22.40;44.20;;;;;;1567350;73;1434;-56
2021/05/25 01:15:03;;;;;;;;;;;22.40;44.20;;;;;;1578950;73;1654;-55
2021/05/25 01:17:02;;;;;;;;;;;22.40;44.20;;;;;;1588334;73;1581;-56
2021/05/25 01:19:04;;;;;;;;;;;22.40;44.30;;;;;;1587033;74;1941;-55
2021/05/25 01:21:06;;;;;;;;;;;22.40;44.10;;;;;;1583455;74;1151;-54
2021/05/25 01:23:09;;;;;;;;;;;22.40;44.20;;;;;;1581263;73;831;-55
2021/05/25 01:25:14;;;;;;;;;;;22.40;44.00;;;;;;1582828;73;741;-56
2021/05/25 01:27:16;;;;;;;;;;;22.40;43.90;;;;;;1577697;73;731;-54
2021/05/25 01:29:18;;;;;;;;;;;22.40;43.90;;;;;;1579068;73;745;-56
2021/05/25 01:31:20;;;;;;;;;;;22.40;43.90;;;;;;1582504;73;1151;-56
2021/05/25 01:33:22;;;;;;;;;;;22.40;43.90;;;;;;1588201;73;764;-56
2021/05/25 01:35:24;;;;;;;;;;;22.40;44.30;;;;;;1583345;73;950;-52
2021/05/25 01:37:26;;;;;;;;;;;22.40;44.20;;;;;;1587439;73;764;-56
2021/05/25 01:39:28;;;;;;;;;;;22.40;44.10;;;;;;1585966;73;1938;-56
2021/05/25 01:41:30;;;;;;;;;;;22.40;44.40;;;;;;1596571;73;1139;-56
2021/05/25 01:43:32;;;;;;;;;;;22.40;44.20;;;;;;1592312;73;812;-56
2021/05/25 01:45:34;;;;;;;;;;;22.40;44.40;;;;;;1588979;73;818;-57
2021/05/25 01:47:36;;;;;;;;;;;22.40;44.40;;;;;;1587847;73;1092;-56
2021/05/25 01:49:39;;;;;;;;;;;22.40;44.40;;;;;;1584671;73;728;-55
2021/05/25 01:51:48;;;;;;;;;;;22.40;44.80;;;;;;1591244;73;1061;-52
2021/05/25 01:53:50;;;;;;;;;;;22.50;44.90;;;;;;1589298;73;780;-55
2021/05/25 01:55:52;;;;;;;;;;;22.50;44.70;;;;;;1586762;73;779;-53
2021/05/25 01:57:55;;;;;;;;;;;22.40;44.70;;;;;;1581157;73;802;-55
2021/05/25 01:59:57;;;;;;;;;;;22.40;44.60;;;;;;1585946;73;1937;-56
2021/05/25 02:01:59;;;;;;;;;;;22.50;44.70;;;;;;1587540;73;719;-56
2021/05/25 02:04:01;;;;;;;;;;;22.50;44.70;;;;;;1581090;73;793;-56
2021/05/25 02:06:03;;;;;;;;;;;22.50;44.60;;;;;;1580171;73;600;-56
2021/05/25 02:08:06;;;;;;;;;;;22.50;44.70;;;;;;1594759;73;808;-57
2021/05/25 02:10:08;;;;;;;;;;;22.50;44.60;;;;;;1589229;73;1114;-57
2021/05/25 02:12:12;;;;;;;;;;;22.50;44.70;;;;;;1594852;73;739;-57
2021/05/25 02:14:13;;;;;;;;;;;22.50;44.90;;;;;;1585484;74;1135;-56
2021/05/25 02:16:16;;;;;;;;;;;22.50;44.70;;;;;;1587539;74;784;-56
2021/05/25 02:18:18;;;;;;;;;;;22.50;44.80;;;;;;1592958;73;693;-56
2021/05/25 02:20:20;;;;;;;;;;;22.50;44.70;;;;;;1600037;73;1930;-56
2021/05/25 02:22:22;;;;;;;;;;;22.40;44.80;;;;;;1587218;73;711;-52
2021/05/25 02:24:24;;;;;;;;;;;22.40;44.70;;;;;;1585717;73;776;-54
2021/05/25 02:26:26;;;;;;;;;;;22.50;44.70;;;;;;1593139;73;747;-56
2021/05/25 02:28:27;;;;;;;;;;;22.50;44.80;;;;;;1586462;73;781;-55
2021/05/25 02:30:29;;;;;;;;;;;22.50;44.70;;;;;;1593932;73;1179;-56
2021/05/25 02:32:31;;;;;;;;;;;22.40;44.60;;;;;;1583977;73;822;-56
2021/05/25 02:34:33;;;;;;;;;;;22.40;44.40;;;;;;1589011;71;214088;-68
2021/05/25 02:36:35;;;;;;;;;;;22.40;44.40;;;;;;1616055;73;730;-72
2021/05/25 02:38:37;;;;;;;;;;;22.40;44.20;;;;;;1613935;73;742;-70
2021/05/25 02:40:39;;;;;;;;;;;22.40;44.00;;;;;;1617053;73;1935;-71
2021/05/25 02:42:41;;;;;;;;;;;22.50;44.30;;;;;;1611424;73;696;-70
2021/05/25 02:44:43;;;;;;;;;;;22.40;44.20;;;;;;1612272;73;1148;-72
2021/05/25 02:46:45;;;;;;;;;;;22.50;44.40;;;;;;1587269;73;704;-71
2021/05/25 02:48:46;;;;;;;;;;;22.40;44.20;;;;;;1593758;73;772;-71
2021/05/25 02:50:49;;;;;;;;;;;22.50;44.30;;;;;;1604326;73;722;-71
2021/05/25 02:52:51;;;;;;;;;;;22.40;44.10;;;;;;1596285;73;792;-71
2021/05/25 02:54:53;;;;;;;;;;;22.50;44.20;;;;;;1595133;73;1135;-71
2021/05/25 02:56:54;;;;;;;;;;;22.40;44.10;;;;;;1591682;73;800;-71
2021/05/25 02:58:56;;;;;;;;;;;22.40;43.90;;;;;;1599544;73;1937;-71
2021/05/25 03:00:58;;;;;;;;;;;22.50;44.10;;;;;;1596030;73;778;-71
2021/05/25 03:03:00;;;;;;;;;;;22.40;43.90;;;;;;1596984;73;791;-71
2021/05/25 03:05:02;;;;;;;;;;;22.40;43.80;;;;;;1580814;73;1168;-72
2021/05/25 03:07:04;;;;;;;;;;;22.40;43.70;;;;;;1562240;74;1181;-71
2021/05/25 03:09:06;;;;;;;;;;;22.40;43.60;;;;;;1580585;73;798;-70
2021/05/25 03:11:07;;;;;;;;;;;22.40;43.50;;;;;;1580713;73;779;-70
2021/05/25 03:13:09;;;;;;;;;;;22.40;43.50;;;;;;1588872;73;806;-71
2021/05/25 03:15:13;;;;;;;;;;;22.40;43.50;;;;;;1597126;73;1122;-71
2021/05/25 03:17:14;;;;;;;;;;;22.40;43.40;;;;;;1597806;73;716;-72
2021/05/25 03:19:16;;;;;;;;;;;22.30;43.40;;;;;;1589188;73;1934;-72
2021/05/25 03:21:18;;;;;;;;;;;22.30;43.40;;;;;;1596711;73;812;-71
2021/05/25 03:23:20;;;;;;;;;;;22.40;43.40;;;;;;1599327;73;746;-70
2021/05/25 03:25:22;;;;;;;;;;;22.30;43.40;;;;;;1599048;73;1163;-70
2021/05/25 03:27:24;;;;;;;;;;;22.40;43.10;;;;;;1591627;73;778;-71
2021/05/25 03:29:26;;;;;;;;;;;22.40;42.90;;;;;;1584142;73;674;-68
2021/05/25 03:31:28;;;;;;;;;;;22.30;42.80;;;;;;1594984;73;803;-68
2021/05/25 03:33:30;;;;;;;;;;;22.40;43.10;;;;;;1600265;73;690;-65
2021/05/25 03:35:32;;;;;;;;;;;22.40;43.10;;;;;;1595802;73;1176;-68
2021/05/25 03:37:34;;;;;;;;;;;22.40;43.10;;;;;;1589897;73;1005;-68
2021/05/25 03:39:36;;;;;;;;;;;22.40;43.00;;;;;;1579355;73;1916;-68
2021/05/25 03:41:38;;;;;;;;;;;22.40;43.00;;;;;;1578629;73;770;-66
2021/05/25 03:43:39;;;;;;;;;;;22.40;43.00;;;;;;1581966;73;811;-67
2021/05/25 03:45:41;;;;;;;;;;;22.40;43.00;;;;;;1598330;73;1144;-67
2021/05/25 03:47:43;;;;;;;;;;;22.30;43.20;;;;;;1599472;73;786;-67
2021/05/25 03:49:46;;;;;;;;;;;22.30;43.20;;;;;;1596607;73;770;-67
2021/05/25 03:51:48;;;;;;;;;;;22.30;43.20;;;;;;1580620;73;814;-66
2021/05/25 03:53:52;;;;;;;;;;;22.40;43.30;;;;;;1583196;73;782;-67
2021/05/25 03:56:05;;;;;;;;;;;22.40;43.40;;;;;;1579216;73;2007;-67
2021/05/25 04:00:17;;;;;;;;;;;22.30;43.20;;;;;;1596417;73;1897;-64
2021/05/25 04:02:19;;;;;;;;;;;22.30;43.40;;;;;;1595948;73;777;-67
2021/05/25 04:04:21;;;;;;;;;;;22.30;43.30;;;;;;1603507;73;1107;-67
2021/05/25 04:06:23;;;;;;;;;;;22.30;43.20;;;;;;1596257;73;812;-67
2021/05/25 04:08:25;;;;;;;;;;;22.30;43.30;;;;;;1598708;73;769;-64
2021/05/25 04:10:27;;;;;;;;;;;22.30;43.60;;;;;;1598650;73;763;-66
2021/05/25 04:12:29;;;;;;;;;;;22.30;43.50;;;;;;1597552;73;803;-66
2021/05/25 04:14:30;;;;;;;;;;;22.40;43.40;;;;;;1587876;73;1155;-65
2021/05/25 04:16:33;;;;;;;;;;;22.20;43.40;;;;;;1596348;73;904;-68
2021/05/25 04:18:35;;;;;;;;;;;22.30;43.70;;;;;;1594087;73;813;-67
2021/05/25 04:20:37;;;;;;;;;;;22.30;43.80;;;;;;1596655;73;1937;-67
2021/05/25 04:22:39;;;;;;;;;;;22.30;43.80;;;;;;1598717;73;918;-66
2021/05/25 04:24:41;;;;;;;;;;;22.30;43.90;;;;;;1598818;73;1128;-68
2021/05/25 04:26:43;;;;;;;;;;;22.30;43.80;;;;;;1603388;73;751;-68
2021/05/25 04:28:44;;;;;;;;;;;22.30;43.80;;;;;;1605265;73;788;-64
2021/05/25 04:30:46;;;;;;;;;;;22.30;43.60;;;;;;1596513;73;749;-68
2021/05/25 04:32:49;;;;;;;;;;;22.30;43.80;;;;;;1602128;73;769;-68
2021/05/25 04:34:51;;;;;;;;;;;22.30;43.60;;;;;;1583317;73;1172;-66
2021/05/25 04:36:52;;;;;;;;;;;22.30;43.90;;;;;;1596023;73;864;-68
2021/05/25 04:38:54;;;;;;;;;;;22.30;44.10;;;;;;1608816;73;826;-67
2021/05/25 04:40:56;;;;;;;;;;;22.30;44.00;;;;;;1603686;73;1938;-66
2021/05/25 04:42:59;;;;;;;;;;;22.30;43.90;;;;;;1591260;73;753;-68
2021/05/25 04:45:00;;;;;;;;;;;22.30;44.10;;;;;;1599853;73;1159;-67
2021/05/25 04:47:02;;;;;;;;;;;22.30;44.00;;;;;;1598218;73;787;-67
2021/05/25 04:49:04;;;;;;;;;;;22.30;44.00;;;;;;1597144;73;750;-67
2021/05/25 04:51:06;;;;;;;;;;;22.30;43.90;;;;;;1578308;73;792;-68
2021/05/25 04:53:08;;;;;;;;;;;22.30;44.20;;;;;;1575563;73;748;-69
2021/05/25 04:55:11;;;;;;;;;;;22.30;44.10;;;;;;1578081;73;1134;-67
2021/05/25 04:57:14;;;;;;;;;;;22.30;43.90;;;;;;1582654;73;743;-68
2021/05/25 04:59:16;;;;;;;;;;;22.30;44.20;;;;;;1579071;73;825;-65
2021/05/25 05:01:17;;;;;;;;;;;22.30;44.20;;;;;;1581003;73;1946;-67
2021/05/25 05:03:19;;;;;;;;;;;22.30;44.60;;;;;;1579160;73;765;-67
2021/05/25 05:05:22;;;;;;;;;;;22.30;44.70;;;;;;1581453;73;1133;-66
2021/05/25 05:07:23;;;;;;;;;;;22.20;44.70;;;;;;1580259;73;707;-67
2021/05/25 05:09:25;;;;;;;;;;;22.20;44.30;;;;;;1583857;73;778;-68
2021/05/25 05:11:27;;;;;;;;;;;22.20;44.20;;;;;;1586280;73;683;-68
2021/05/25 05:13:29;;;;;;;;;;;22.20;44.10;;;;;;1583785;73;782;-68
2021/05/25 05:15:31;;;;;;;;;;;22.20;44.20;;;;;;1582614;73;1145;-65
2021/05/25 05:17:33;;;;;;;;;;;22.20;44.40;;;;;;1583781;73;800;-67
2021/05/25 05:19:35;;;;;;;;;;;22.20;44.30;;;;;;1582085;73;854;-68
2021/05/25 05:21:37;;;;;;;;;;;22.20;44.10;;;;;;1581278;73;1931;-68
2021/05/25 05:23:38;;;;;;;;;;;22.20;44.30;;;;;;1590091;73;763;-68
2021/05/25 05:25:40;;;;;;;;;;;22.20;44.20;;;;;;1577109;73;1137;-68
2021/05/25 05:27:42;;;;;;;;;;;22.20;44.30;;;;;;1584858;73;792;-68
2021/05/25 05:29:44;;;;;;;;;;;22.20;44.20;;;;;;1579134;73;823;-68
2021/05/25 05:31:46;;;;;;;;;;;22.20;44.30;;;;;;1587537;73;741;-67
2021/05/25 05:33:48;;;;;;;;;;;22.20;44.40;;;;;;1588547;73;787;-66
2021/05/25 05:35:50;;;;;;;;;;;22.20;44.40;;;;;;1598081;73;1184;-68
2021/05/25 05:37:52;;;;;;;;;;;22.10;44.50;;;;;;1596180;73;786;-68
2021/05/25 05:39:53;;;;;;;;;;;22.10;44.50;;;;;;1603901;73;1938;-68
2021/05/25 05:41:55;;;;;;;;;;;22.20;44.40;;;;;;1598982;73;783;-68
2021/05/25 05:43:57;;;;;;;;;;;22.20;44.40;;;;;;1585962;73;711;-68
2021/05/25 05:45:59;;;;;;;;;;;22.20;44.70;;;;;;1583630;73;1112;-68
2021/05/25 05:48:01;;;;;;;;;;;22.10;44.60;;;;;;1598151;73;690;-71
2021/05/25 05:50:10;;;;;;;;;;;22.10;44.90;;;;;;1587769;73;715;-73
2021/05/25 05:52:07;;;;;;;;;;;22.10;44.90;;;;;;1590862;73;1561;-75
2021/05/25 05:54:11;;;;;;;;;;;22.10;44.40;;;;;;1598753;73;718;-76
2021/05/25 05:56:12;;;;;;;;;;;22.10;44.80;;;;;;1604861;73;1149;-70
2021/05/25 05:58:14;;;;;;;;;;;22.20;44.60;;;;;;1605453;73;858;-70
2021/05/25 06:00:16;;;;;;;;;;;22.10;44.10;;;;;;1588672;73;1931;-76
2021/05/25 06:02:18;;;;;;;;;;;22.00;44.30;;;;;;1594883;73;736;-73
2021/05/25 06:04:20;;;;;;;;;;;22.10;44.20;;;;;;1601922;73;1130;-65
2021/05/25 06:06:22;;;;;;;;;;;22.20;43.90;;;;;;1595324;73;822;-70
2021/05/25 06:08:24;;;;;;;;;;;22.10;43.60;;;;;;1599590;73;803;-68
2021/05/25 06:10:28;;;;;;;;;;;22.20;43.10;;;;;;1599106;73;783;-69
2021/05/25 06:12:30;;;;;;;;;;;22.20;43.50;;;;;;1591593;73;1630;-73
2021/05/25 06:14:32;;;;;;;;;;;22.10;43.40;;;;;;1593913;73;1104;-71
2021/05/25 06:16:34;;;;;;;;;;;22.10;43.10;;;;;;1596116;73;864;-70
2021/05/25 06:18:36;;;;;;;;;;;22.10;42.80;;;;;;1586962;73;763;-68
2021/05/25 06:20:38;;;;;;;;;;;22.10;42.90;;;;;;1595093;73;1933;-69
2021/05/25 06:22:40;;;;;;;;;;;22.10;42.90;;;;;;1596817;73;736;-68
2021/05/25 06:24:42;;;;;;;;;;;22.20;42.60;;;;;;1588161;73;1144;-70
2021/05/25 06:26:44;;;;;;;;;;;22.10;41.90;;;;;;1595495;73;721;-70
2021/05/25 06:28:46;;;;;;;;;;;22.10;41.50;;;;;;1597781;73;758;-71
2021/05/25 06:30:47;;;;;;;;;;;22.10;41.50;;;;;;1593756;73;810;-69
2021/05/25 06:32:49;;;;;;;;;;;22.10;40.20;;;;;;1599884;73;735;-69
2021/05/25 06:34:51;;;;;;;;;;;22.00;39.80;;;;;;1590121;73;1154;-70
2021/05/25 06:36:53;;;;;;;;;;;22.00;39.40;;;;;;1595396;73;757;-68
2021/05/25 06:38:55;;;;;;;;;;;22.00;38.10;;;;;;1584131;73;672;-68
2021/05/25 06:40:57;;;;;;;;;;;22.00;37.40;;;;;;1597770;73;1927;-69
2021/05/25 06:42:59;;;;;;;;;;;22.00;36.60;;;;;;1593943;73;736;-70
2021/05/25 06:45:01;;;;;;;;;;;22.00;36.60;;;;;;1594644;73;1170;-70
2021/05/25 06:47:03;;;;;;;;;;;22.00;37.20;;;;;;1590622;73;747;-70
2021/05/25 06:49:05;;;;;;;;;;;21.90;37.80;;;;;;1596355;73;796;-68
2021/05/25 06:51:07;;;;;;;;;;;21.90;38.30;;;;;;1586327;73;732;-68
2021/05/25 06:53:10;;;;;;;;;;;21.90;38.50;;;;;;1587559;73;700;-69
2021/05/25 06:55:12;;;;;;;;;;;22.00;38.20;;;;;;1595087;73;1141;-70
2021/05/25 06:57:14;;;;;;;;;;;21.90;38.30;;;;;;1599289;73;700;-69
2021/05/25 06:59:16;;;;;;;;;;;21.90;38.00;;;;;;1601154;73;732;-70
2021/05/25 07:01:18;;;;;;;;;;;21.90;38.10;;;;;;1604005;73;1937;-69
2021/05/25 07:03:20;;;;;;;;;;;21.90;37.70;;;;;;1604568;73;795;-69
2021/05/25 07:05:21;;;;;;;;;;;21.90;38.10;;;;;;1593858;73;1178;-69
2021/05/25 07:07:23;;;;;;;;;;;21.90;37.90;;;;;;1598041;73;795;-66
2021/05/25 07:09:25;;;;;;;;;;;22.00;38.30;;;;;;1591478;73;778;-65
2021/05/25 07:11:27;;;;;;;;;;;22.00;38.50;;;;;;1598038;73;797;-70
2021/05/25 07:13:30;;;;;;;;;;;22.00;38.60;;;;;;1592345;73;749;-69
2021/05/25 07:15:32;;;;;;;;;;;22.00;38.40;;;;;;1589899;73;1140;-69
2021/05/25 07:17:33;;;;;;;;;;;21.90;38.60;;;;;;1597033;73;750;-69
2021/05/25 07:19:35;;;;;;;;;;;21.90;38.20;;;;;;1595797;73;728;-70
2021/05/25 07:21:37;;;;;;;;;;;21.90;38.50;;;;;;1596430;73;1922;-71
2021/05/25 07:23:39;;;;;;;;;;;22.00;38.10;;;;;;1592465;73;821;-70
2021/05/25 07:25:41;;;;;;;;;;;21.90;38.30;;;;;;1589921;73;1123;-70
2021/05/25 07:27:43;;;;;;;;;;;21.90;38.00;;;;;;1593439;73;769;-69
2021/05/25 07:29:45;;;;;;;;;;;21.90;38.00;;;;;;1593374;73;779;-69
2021/05/25 07:31:47;;;;;;;;;;;21.90;37.80;;;;;;1592053;73;719;-71
2021/05/25 07:33:49;;;;;;;;;;;21.90;37.50;;;;;;1596901;73;725;-70
2021/05/25 07:35:51;;;;;;;;;;;21.90;37.80;;;;;;1600137;73;1214;-67
2021/05/25 07:37:53;;;;;;;;;;;21.90;36.90;;;;;;1604401;73;763;-67
2021/05/25 07:39:55;;;;;;;;;;;21.90;37.00;;;;;;1604092;73;840;-68
2021/05/25 07:41:57;;;;;;;;;;;21.90;36.40;;;;;;1597471;73;1933;-68
2021/05/25 07:43:59;;;;;;;;;;;22.00;36.00;;;;;;1601159;73;795;-68
2021/05/25 07:46:01;;;;;;;;;;;21.90;35.10;;;;;;1592476;73;1202;-70
2021/05/25 07:48:03;;;;;;;;;;;21.80;35.60;;;;;;1593276;73;795;-69
2021/05/25 07:50:14;;;;;;;;;;;21.80;35.70;;;;;;1593250;73;784;-66
2021/05/25 07:52:17;;;;;;;;;;;21.80;35.60;;;;;;1585524;73;682;-68
2021/05/25 07:54:19;;;;;;;;;;;21.90;35.70;;;;;;1603690;73;1137;-69
2021/05/25 07:56:21;;;;;;;;;;;22.00;35.10;;;;;;1591770;73;733;-65
2021/05/25 07:58:24;;;;;;;;;;;22.00;35.10;;;;;;1584098;73;805;-68
2021/05/25 08:00:27;;;;;;;;;;;22.20;35.30;;;;;;1582569;73;1127;-66
2021/05/25 08:02:29;;;;;;;;;;;22.30;35.60;;;;;;1593089;73;1904;-67
2021/05/25 08:04:30;;;;;;;;;;;22.30;35.80;;;;;;1588633;73;1092;-65
2021/05/25 08:06:34;;;;;;;;;;;22.40;35.80;;;;;;1597735;73;780;-64
2021/05/25 08:08:36;;;;;;;;;;;22.50;36.00;;;;;;1589174;73;819;-66
2021/05/25 08:10:38;;;;;;;;;;;22.50;36.00;;;;;;1581127;73;861;-67
2021/05/25 08:12:40;;;;;;;;;;;22.50;36.00;;;;;;1579804;73;766;-68
2021/05/25 08:14:42;;;;;;;;;;;22.60;36.10;;;;;;1576679;73;1141;-65
2021/05/25 08:16:44;;;;;;;;;;;22.70;36.40;;;;;;1572461;73;783;-65
2021/05/25 08:18:50;;;;;;;;;;;22.70;36.40;;;;;;1580405;73;839;-67
2021/05/25 08:20:50;;;;;;;;;;;22.80;36.40;;;;;;1598597;73;1921;-67
2021/05/25 08:22:53;;;;;;;;;;;22.70;36.50;;;;;;1578950;73;827;-64
2021/05/25 08:24:55;;;;;;;;;;;22.70;36.60;;;;;;1576404;73;1088;-73
2021/05/25 08:26:56;;;;;;;;;;;22.70;36.60;;;;;;1590275;73;762;-69
2021/05/25 08:28:58;;;;;;;;;;;22.80;36.80;;;;;;1591462;73;797;-68
2021/05/25 08:31:00;;;;;;;;;;;22.80;36.80;;;;;;1594866;73;719;-68
2021/05/25 08:33:02;;;;;;;;;;;22.80;36.90;;;;;;1595598;73;740;-68
2021/05/25 08:35:06;;;;;;;;;;;22.90;37.10;;;;;;1596832;71;3174;-65
2021/05/25 08:37:08;;;;;;;;;;;22.90;37.10;;;;;;1603471;72;714;-65
2021/05/25 08:39:10;;;;;;;;;;;22.90;37.20;;;;;;1603620;72;742;-63
2021/05/25 08:41:11;;;;;;;;;;;22.90;37.30;;;;;;1604323;72;1933;-65
2021/05/25 08:43:13;;;;;;;;;;;22.90;37.30;;;;;;1600568;72;729;-64
2021/05/25 08:45:15;;;;;;;;;;;23.00;37.30;;;;;;1593415;72;1211;-63
2021/05/25 08:47:17;;;;;;;;;;;22.90;37.30;;;;;;1571567;74;766;-65
2021/05/25 08:49:19;;;;;;;;;;;23.00;37.40;;;;;;1578389;74;778;-64
2021/05/25 08:51:21;;;;;;;;;;;23.00;37.40;;;;;;1578404;74;787;-64
2021/05/25 08:53:23;;;;;;;;;;;23.00;37.50;;;;;;1567978;74;734;-66
2021/05/25 08:55:27;;;;;;;;;;;23.00;37.50;;;;;;1574237;74;1172;-66
2021/05/25 08:57:28;;;;;;;;;;;23.00;37.60;;;;;;1533683;75;740;-62
2021/05/25 08:59:30;;;;;;;;;;;22.90;37.60;;;;;;1536050;76;749;-63
2021/05/25 09:01:32;;;;;;;;;;;23.00;37.60;;;;;;1532493;76;1945;-66
2021/05/25 09:03:34;;;;;;;;;;;23.00;37.60;;;;;;1526308;76;771;-64
2021/05/25 09:05:37;;;;;;;;;;;23.00;37.70;;;;;;1522020;76;1138;-66
2021/05/25 09:07:52;;;;;;;;;;;23.00;37.80;;;;;;1549248;75;732;-64
2021/05/25 09:09:54;;;;;;;;;;;23.00;37.80;;;;;;1548393;75;797;-65
2021/05/25 09:12:02;;;;;;;;;;;23.00;37.80;;;;;;1532007;77;662;-64
2021/05/25 09:14:08;;;;;;;;;;;23.00;37.80;;;;;;1531979;76;1794;-63
2021/05/25 09:16:10;;;;;;;;;;;22.90;37.90;;;;;;1515400;76;1202;-64
2021/05/25 09:18:13;;;;;;;;;;;23.00;38.00;;;;;;1558328;75;741;-64
2021/05/25 09:20:15;;;;;;;;;;;23.00;37.90;;;;;;1548422;75;760;-65
2021/05/25 09:22:35;;;;;;;;;;;23.00;38.00;;;;;;1533565;75;1906;-65
2021/05/25 09:24:40;;;;;;;;;;;23.00;38.00;;;;;;1541190;75;1162;-65
2021/05/25 09:26:46;;;;;;;;;;;23.00;38.00;;;;;;1551283;75;904;-68
2021/05/25 09:28:58;;;;;;;;;;;23.00;38.10;;;;;;1504753;77;688;-65
2021/05/25 09:30:59;;;;;;;;;;;23.00;38.10;;;;;;1536910;75;709;-68
2021/05/25 09:33:03;;;;;;;;;;;23.00;38.10;;;;;;1512092;77;763;-66
2021/05/25 09:35:05;;;;;;;;;;;23.00;38.20;;;;;;1534444;75;1777;-66
2021/05/25 09:37:09;;;;;;;;;;;23.00;38.20;;;;;;1540407;75;809;-68
2021/05/25 09:39:11;;;;;;;;;;;23.00;38.20;;;;;;1531336;75;765;-68
2021/05/25 09:41:13;;;;;;;;;;;23.00;38.20;;;;;;1515680;77;739;-66
2021/05/25 09:43:24;;;;;;;;;;;22.90;38.20;;;;;;1534210;75;747;-66
2021/05/25 09:45:26;;;;;;;;;;;22.90;38.40;;;;;;1502184;77;1224;-67
2021/05/25 09:47:35;;;;;;;;;;;22.90;38.50;;;;;;1500539;77;703;-66
2021/05/25 09:49:36;;;;;;;;;;;22.80;38.50;;;;;;1511333;77;714;-66
2021/05/25 09:51:39;;;;;;;;;;;22.90;38.70;;;;;;1508745;77;771;-66
2021/05/25 09:53:42;;;;;;;;;;;22.90;38.60;;;;;;1500040;77;720;-65
2021/05/25 09:55:49;;;;;;;;;;;22.90;38.70;;;;;;1500613;77;1969;-67
2021/05/25 09:57:52;;;;;;;;;;;22.90;38.60;;;;;;1499167;77;795;-66
2021/05/25 09:59:54;;;;;;;;;;;22.90;38.70;;;;;;1494940;77;2218;-65
2021/05/25 10:01:56;;;;;;;;;;;22.90;38.60;;;;;;1496795;77;1971;-66
2021/05/25 10:03:58;;;;;;;;;;;22.90;38.70;;;;;;1499036;77;724;-66
2021/05/25 10:06:01;;;;;;;;;;;22.90;38.70;;;;;;1497139;77;1157;-68
2021/05/25 10:08:03;;;;;;;;;;;22.90;38.70;;;;;;1506237;77;796;-64
2021/05/25 10:10:06;;;;;;;;;;;22.90;38.80;;;;;;1531445;75;764;-64
2021/05/25 10:12:07;;;;;;;;;;;22.90;38.90;;;;;;1540251;75;772;-66
2021/05/25 10:14:09;;;;;;;;;;;22.90;38.90;;;;;;1499205;77;1271;-67
2021/05/25 10:16:13;;;;;;;;;;;22.90;38.90;;;;;;1507968;77;1131;-67
2021/05/25 10:18:34;;;;;;;;;;;22.90;38.90;;;;;;1506925;77;720;-67
2021/05/25 10:20:21;;;;;;;;;;;22.70;38.80;;;;;;1492362;77;1714;-65
2021/05/25 10:22:23;;;;;;;;;;;22.70;38.70;;;;;;1532532;75;1991;-63
2021/05/25 10:24:25;;;;;;;;;;;22.80;38.60;;;;;;1537940;75;793;-66
2021/05/25 10:26:27;;;;;;;;;;;22.80;38.50;;;;;;1535659;75;1091;-66
2021/05/25 10:28:29;;;;;;;;;;;22.80;38.20;;;;;;1525190;75;964;-65
2021/05/25 10:30:33;;;;;;;;;;;22.90;38.40;;;;;;1535475;75;723;-66
2021/05/25 10:32:35;;;;;;;;;;;22.90;38.30;;;;;;1522588;75;804;-66
2021/05/25 10:34:36;;;;;;;;;;;22.80;38.10;;;;;;1498451;77;1281;-66
2021/05/25 10:36:42;;;;;;;;;;;22.90;38.20;;;;;;1494544;77;789;-66
2021/05/25 10:38:46;;;;;;;;;;;22.90;38.10;;;;;;1496645;77;792;-66
2021/05/25 10:40:50;;;;;;;;;;;22.90;38.10;;;;;;1491741;77;949;-66
2021/05/25 10:42:52;;;;;;;;;;;22.80;37.90;;;;;;1495490;77;1923;-66
2021/05/25 10:44:57;;;;;;;;;;;22.80;37.90;;;;;;1495534;77;1216;-66
2021/05/25 10:47:21;;;;;;;;;;;22.80;38.00;;;;;;1495158;77;713;-68
2021/05/25 10:49:26;;;;;;;;;;;22.80;37.90;;;;;;1533813;75;1773;-67
2021/05/25 10:51:49;;;;;;;;;;;22.80;38.00;;;;;;1508248;77;789;-65
2021/05/25 10:54:07;;;;;;;;;;;22.80;38.00;;;;;;1525746;75;772;-66
2021/05/25 10:56:14;;;;;;;;;;;22.80;38.20;;;;;;1481360;78;1196;-67
2021/05/25 10:58:20;;;;;;;;;;;22.70;38.20;;;;;;1474539;77;1545;-65
2021/05/25 11:00:29;;;;;;;;;;;22.70;38.20;;;;;;1536403;75;778;-66
2021/05/25 11:02:49;;;;;;;;;;;22.70;38.20;;;;;;1532872;75;1914;-65
2021/05/25 11:04:51;;;;;;;;;;;22.80;38.20;;;;;;1541707;74;1144;-66
2021/05/25 11:06:53;;;;;;;;;;;22.70;38.30;;;;;;1530088;75;796;-67
2021/05/25 11:08:56;;;;;;;;;;;22.80;38.20;;;;;;1536215;75;787;-67
2021/05/25 11:11:12;;;;;;;;;;;22.70;38.20;;;;;;1505486;77;1139;-67
2021/05/25 11:13:25;;;;;;;;;;;22.70;38.20;;;;;;1535829;75;1478;-67
2021/05/25 11:15:22;;;;;;;;;;;22.70;38.20;;;;;;1527506;75;1595;-67
2021/05/25 11:17:33;;;;;;;;;;;22.70;38.10;;;;;;1524041;75;730;-67
2021/05/25 11:19:43;;;;;;;;;;;22.70;38.10;;;;;;1531433;75;1094;-67
2021/05/25 11:21:59;;;;;;;;;;;22.70;38.20;;;;;;1528256;75;1733;-65
2021/05/25 11:23:51;;;;;;;;;;;22.80;38.10;;;;;;1524841;75;1757;-66
2021/05/25 11:25:52;;;;;;;;;;;22.80;38.10;;;;;;1532772;75;1130;-67
2021/05/25 11:27:57;;;;;;;;;;;22.80;38.10;;;;;;1524872;75;681;-67
2021/05/25 11:30:03;;;;;;;;;;;22.70;38.20;;;;;;1521808;75;866;-67
2021/05/25 11:32:06;;;;;;;;;;;22.80;38.10;;;;;;1528607;75;1505;-67
2021/05/25 11:34:07;;;;;;;;;;;22.80;38.10;;;;;;1523269;76;878;-67
2021/05/25 11:36:09;;;;;;;;;;;22.70;38.10;;;;;;1528448;75;1168;-66
2021/05/25 11:38:11;;;;;;;;;;;22.70;38.10;;;;;;1543869;75;918;-66
2021/05/25 11:40:14;;;;;;;;;;;22.70;38.10;;;;;;1501462;77;845;-67
2021/05/25 11:42:16;;;;;;;;;;;22.70;38.10;;;;;;1526407;75;1928;-64
2021/05/25 11:44:20;;;;;;;;;;;22.70;38.00;;;;;;1525475;75;730;-66
2021/05/25 11:46:21;;;;;;;;;;;22.70;38.00;;;;;;1530666;75;1765;-66
2021/05/25 11:48:23;;;;;;;;;;;22.70;38.00;;;;;;1529132;75;767;-67
2021/05/25 11:50:25;;;;;;;;;;;22.80;38.10;;;;;;1534645;75;719;-66
2021/05/25 11:52:33;;;;;;;;;;;22.70;38.10;;;;;;1535721;75;803;-66
2021/05/25 11:54:35;;;;;;;;;;;22.60;38.20;;;;;;1532318;75;1131;-64
2021/05/25 11:56:37;;;;;;;;;;;22.60;38.40;;;;;;1531841;75;904;-66
2021/05/25 11:58:39;;;;;;;;;;;22.60;38.50;;;;;;1550287;75;757;-68
2021/05/25 12:00:41;;;;;;;;;;;22.70;38.60;;;;;;1538330;75;802;-66
2021/05/25 12:02:44;;;;;;;;;;;22.70;38.70;;;;;;1541114;75;1926;-66
2021/05/25 12:04:46;;;;;;;;;;;22.70;38.70;;;;;;1533651;74;1135;-66
2021/05/25 12:06:49;;;;;;;;;;;22.70;38.80;;;;;;1524893;75;787;-67
2021/05/25 12:08:51;;;;;;;;;;;22.80;38.90;;;;;;1540787;75;827;-67
2021/05/25 12:10:53;;;;;;;;;;;22.70;38.90;;;;;;1543196;75;721;-66
2021/05/25 12:12:56;;;;;;;;;;;22.80;38.90;;;;;;1529180;75;770;-66
2021/05/25 12:14:59;;;;;;;;;;;22.80;38.90;;;;;;1538840;75;1874;-66